Time;durP1;ratioP1;P1;durP2;ratioP2;P2;SDS_P1;SDS_P2;PMS_P1;PMS_P2;Temp;Humidity;BMP_temperature;BMP_pressure;BME280_temperature;BME280_humidity;BME280_pressure;Samples;Min_cycle;Max_cycle;Signal;HPM_P1;HPM_P2
2021/12/30 00:00:17;;;;;;;7.60;2.40;;;17.20;59.80;;;;;;4971857;28;20800;-72
2021/12/30 00:02:42;;;;;;;8.07;2.38;;;17.20;59.70;;;;;;4970485;28;20070;-73
2021/12/30 00:05:09;;;;;;;5.78;2.03;;;17.10;59.70;;;;;;4971604;28;20057;-71
2021/12/30 00:07:36;;;;;;;7.53;2.50;;;17.20;59.80;;;;;;4971035;28;20106;-73
2021/12/30 00:10:03;;;;;;;7.70;2.70;;;17.20;59.70;;;;;;4971560;28;20698;-70
2021/12/30 00:12:30;;;;;;;6.55;2.22;;;17.20;59.60;;;;;;4971331;28;20063;-70
2021/12/30 00:14:56;;;;;;;6.53;2.38;;;17.20;59.70;;;;;;4972276;28;20041;-70
2021/12/30 00:17:21;;;;;;;6.68;2.47;;;17.10;59.40;;;;;;4971114;28;20038;-70
2021/12/30 00:19:47;;;;;;;6.95;2.13;;;17.10;59.20;;;;;;4970545;28;20093;-70
2021/12/30 00:22:14;;;;;;;7.97;2.35;;;17.10;59.20;;;;;;4971080;28;20497;-70
2021/12/30 00:24:39;;;;;;;6.25;2.35;;;17.10;59.30;;;;;;4971201;28;20027;-70
2021/12/30 00:27:05;;;;;;;7.47;2.42;;;17.00;59.20;;;;;;4971203;28;20027;-71
2021/12/30 00:29:31;;;;;;;6.85;2.38;;;17.00;59.10;;;;;;4970939;28;20050;-70
2021/12/30 00:31:56;;;;;;;5.93;2.25;;;17.00;59.20;;;;;;4970414;28;20027;-69
2021/12/30 00:34:22;;;;;;;6.88;2.30;;;16.90;59.10;;;;;;4970384;28;20034;-69
2021/12/30 00:36:47;;;;;;;7.72;2.40;;;16.90;59.10;;;;;;4970425;28;20600;-69
2021/12/30 00:39:13;;;;;;;6.53;2.10;;;16.90;59.10;;;;;;4971101;28;20516;-69
2021/12/30 00:41:39;;;;;;;9.25;2.55;;;16.90;59.10;;;;;;4970563;28;20057;-69
2021/12/30 00:44:04;;;;;;;6.80;2.55;;;16.90;59.00;;;;;;4953135;28;20052;-69
2021/12/30 00:46:30;;;;;;;7.35;3.17;;;16.90;59.10;;;;;;4970345;28;20038;-70
2021/12/30 00:48:56;;;;;;;7.15;2.55;;;16.90;59.00;;;;;;4971142;28;20532;-70
2021/12/30 00:51:21;;;;;;;7.10;2.60;;;16.90;59.00;;;;;;4970595;28;20031;-69
2021/12/30 00:53:47;;;;;;;6.47;2.47;;;16.90;59.10;;;;;;4970688;28;20039;-69
2021/12/30 00:56:13;;;;;;;5.32;2.40;;;16.80;59.00;;;;;;4970070;28;20051;-69
2021/12/30 00:58:38;;;;;;;8.38;2.65;;;16.80;59.00;;;;;;4970293;28;20058;-70
2021/12/30 01:01:05;;;;;;;7.97;2.78;;;16.80;58.90;;;;;;4970174;28;20034;-70
2021/12/30 01:03:32;;;;;;;8.73;2.95;;;16.80;59.90;;;;;;4970354;28;20146;-71
2021/12/30 01:05:58;;;;;;;7.97;2.40;;;16.80;59.00;;;;;;4969450;28;20070;-70
2021/12/30 01:08:24;;;;;;;10.32;2.90;;;16.80;59.00;;;;;;4970617;28;20062;-70
2021/12/30 01:10:50;;;;;;;6.30;2.30;;;16.80;58.90;;;;;;4970259;28;20080;-69
2021/12/30 01:13:22;;;;;;;8.02;2.90;;;16.80;58.90;;;;;;4969988;28;20023;-69
2021/12/30 01:16:02;;;;;;;6.88;2.28;;;16.80;59.00;;;;;;4970236;28;20045;-70
2021/12/30 01:18:53;;;;;;;8.02;2.40;;;16.80;58.90;;;;;;4970421;28;20202;-70
2021/12/30 01:21:19;;;;;;;6.43;2.50;;;16.80;58.90;;;;;;4970093;28;20031;-69
2021/12/30 01:23:45;;;;;;;8.02;2.42;;;16.80;58.80;;;;;;4970360;28;20446;-71
2021/12/30 01:26:10;;;;;;;6.68;2.65;;;16.80;58.80;;;;;;4969987;28;20054;-70
2021/12/30 01:28:36;;;;;;;5.90;2.42;;;16.80;58.80;;;;;;4970257;28;20662;-70
2021/12/30 01:31:03;;;;;;;5.53;2.00;;;16.80;58.70;;;;;;4969908;28;20118;-71
2021/12/30 01:33:29;;;;;;;6.13;2.38;;;16.80;58.70;;;;;;4969792;28;20066;-69
2021/12/30 01:35:55;;;;;;;6.05;2.35;;;16.80;58.70;;;;;;4969701;28;20058;-69
2021/12/30 01:38:20;;;;;;;8.13;2.55;;;16.80;58.60;;;;;;4969986;28;20035;-69
2021/12/30 01:40:48;;;;;;;10.60;2.83;;;16.90;58.60;;;;;;4969518;28;20034;-69
2021/12/30 01:43:14;;;;;;;6.28;2.42;;;16.80;58.50;;;;;;4969832;28;20019;-69
2021/12/30 01:45:41;;;;;;;6.47;2.60;;;16.90;58.50;;;;;;4970465;28;20026;-70
2021/12/30 01:48:09;;;;;;;6.78;2.50;;;16.90;58.50;;;;;;4970297;28;20035;-70
2021/12/30 01:50:35;;;;;;;8.57;2.72;;;16.90;58.50;;;;;;4969476;28;20038;-69
2021/12/30 01:53:02;;;;;;;7.15;2.47;;;16.90;58.40;;;;;;4969056;28;20027;-69
2021/12/30 01:55:27;;;;;;;6.40;2.65;;;16.90;58.50;;;;;;4969864;28;20030;-69
2021/12/30 01:57:53;;;;;;;7.20;2.50;;;16.90;58.50;;;;;;4969337;28;20395;-69
2021/12/30 02:00:24;;;;;;;5.72;2.63;;;16.90;58.40;;;;;;4970178;28;20109;-69
2021/12/30 02:02:49;;;;;;;7.25;2.70;;;16.90;58.40;;;;;;4969731;28;20034;-70
2021/12/30 02:05:15;;;;;;;7.47;2.58;;;16.90;58.40;;;;;;4970053;28;20031;-70
2021/12/30 02:07:42;;;;;;;9.10;2.50;;;16.90;58.40;;;;;;4969959;28;20033;-70
2021/12/30 02:10:08;;;;;;;6.70;2.30;;;17.00;58.40;;;;;;4971446;28;20031;-70
2021/12/30 02:12:37;;;;;;;6.68;2.50;;;16.90;58.30;;;;;;4969659;28;20034;-70
2021/12/30 02:15:05;;;;;;;6.10;2.55;;;16.90;58.20;;;;;;4969461;28;20029;-69
2021/12/30 02:17:31;;;;;;;7.82;2.72;;;17.00;58.30;;;;;;4968915;28;20117;-69
2021/12/30 02:19:59;;;;;;;8.52;3.00;;;17.00;58.20;;;;;;4969206;28;20070;-69
2021/12/30 02:22:24;;;;;;;7.40;2.35;;;17.00;58.20;;;;;;4969631;28;20050;-70
2021/12/30 02:24:50;;;;;;;6.32;2.50;;;17.00;58.20;;;;;;4969273;28;20888;-69
2021/12/30 02:27:17;;;;;;;5.82;2.60;;;17.00;58.20;;;;;;4968949;28;20079;-71
2021/12/30 02:29:43;;;;;;;6.53;2.53;;;17.00;58.20;;;;;;4952043;28;20122;-69
2021/12/30 02:32:10;;;;;;;7.63;2.72;;;17.00;58.10;;;;;;4969172;28;20117;-69
2021/12/30 02:34:39;;;;;;;6.90;2.60;;;17.00;58.00;;;;;;4968721;28;20031;-70
2021/12/30 02:37:06;;;;;;;8.43;2.40;;;17.00;58.00;;;;;;4968539;28;20085;-70
2021/12/30 02:39:32;;;;;;;5.95;2.38;;;17.00;58.00;;;;;;4969140;28;20486;-70
2021/12/30 02:41:57;;;;;;;5.10;2.08;;;17.00;58.00;;;;;;4968853;28;20047;-70
2021/12/30 02:44:23;;;;;;;5.47;2.42;;;17.00;58.00;;;;;;4969246;28;20612;-71
2021/12/30 02:46:53;;;;;;;6.47;2.38;;;17.00;58.10;;;;;;4968317;28;20042;-69
2021/12/30 02:49:19;;;;;;;6.03;2.50;;;17.00;57.90;;;;;;4968592;28;20026;-71
2021/12/30 02:51:45;;;;;;;4.78;2.13;;;17.00;58.00;;;;;;4969090;28;20049;-69
2021/12/30 02:54:10;;;;;;;8.10;2.63;;;17.00;58.00;;;;;;4968750;28;20027;-70
2021/12/30 02:56:36;;;;;;;6.55;2.50;;;17.00;58.00;;;;;;4968027;28;20042;-71
2021/12/30 02:59:03;;;;;;;5.22;2.20;;;17.00;58.00;;;;;;4968363;28;20038;-70
2021/12/30 03:01:33;;;;;;;7.40;2.58;;;17.00;58.00;;;;;;4969037;28;20038;-69
2021/12/30 03:04:02;;;;;;;5.78;2.30;;;17.00;58.00;;;;;;4968507;28;20054;-69
2021/12/30 03:06:29;;;;;;;5.80;2.40;;;17.00;58.00;;;;;;4967951;28;20035;-71
2021/12/30 03:08:55;;;;;;;6.18;2.35;;;17.00;58.00;;;;;;4968124;28;20085;-70
2021/12/30 03:11:22;;;;;;;5.65;2.42;;;16.90;58.00;;;;;;4968349;28;20035;-70
2021/12/30 03:13:48;;;;;;;5.45;2.35;;;16.90;58.00;;;;;;4967876;28;20519;-71
2021/12/30 03:16:29;;;;;;;6.55;2.47;;;16.90;58.00;;;;;;4967994;28;20034;-70
2021/12/30 03:18:55;;;;;;;7.60;2.67;;;16.90;57.90;;;;;;4968253;28;20041;-70
2021/12/30 03:21:22;;;;;;;4.90;2.60;;;16.90;58.10;;;;;;4967911;28;20023;-70
2021/12/30 03:23:49;;;;;;;5.10;2.45;;;16.90;58.00;;;;;;4950931;28;20970;-72
2021/12/30 03:26:15;;;;;;;5.72;2.50;;;16.90;58.00;;;;;;4969268;28;20150;-71
2021/12/30 03:28:42;;;;;;;7.65;2.63;;;16.90;58.00;;;;;;4968318;28;20030;-70
2021/12/30 03:31:09;;;;;;;7.78;2.75;;;16.80;58.00;;;;;;4967906;28;20030;-69
2021/12/30 03:33:35;;;;;;;6.82;2.63;;;16.80;58.10;;;;;;4968077;28;20039;-69
2021/12/30 03:36:02;;;;;;;5.30;1.98;;;16.80;58.10;;;;;;4967479;28;20110;-70
2021/12/30 03:38:31;;;;;;;5.65;2.47;;;16.80;58.10;;;;;;4968021;28;20068;-70
2021/12/30 03:40:58;;;;;;;7.38;2.47;;;16.80;58.10;;;;;;4967765;28;20030;-69
2021/12/30 03:43:24;;;;;;;7.05;2.63;;;16.80;58.10;;;;;;4967476;28;20142;-70
2021/12/30 03:45:49;;;;;;;7.72;3.03;;;16.80;58.10;;;;;;4967779;28;20117;-71
2021/12/30 03:48:15;;;;;;;7.07;2.65;;;16.80;58.20;;;;;;4968270;28;20150;-69
2021/12/30 03:50:44;;;;;;;7.28;2.22;;;16.80;58.10;;;;;;4968102;28;20022;-69
2021/12/30 03:53:12;;;;;;;6.50;2.30;;;16.80;58.10;;;;;;4967797;28;20371;-71
2021/12/30 03:55:38;;;;;;;5.60;2.60;;;16.80;58.10;;;;;;4967643;28;20019;-70
2021/12/30 03:58:04;;;;;;;5.82;2.35;;;16.80;58.10;;;;;;4967819;28;20039;-69
2021/12/30 05:42:58;;;;;;;3.88;1.80;;;17.90;55.90;;;;;;5485701;23;20694;-70
2021/12/30 05:45:26;;;;;;;4.00;1.95;;;17.90;55.90;;;;;;4989292;28;20052;-71
2021/12/30 05:47:53;;;;;;;3.80;1.70;;;17.90;55.90;;;;;;4988998;28;20030;-70
2021/12/30 05:50:25;;;;;;;4.82;1.70;;;17.90;56.00;;;;;;4989569;28;20035;-69
2021/12/30 05:52:51;;;;;;;3.57;1.93;;;17.90;56.00;;;;;;4989536;28;20027;-69
2021/12/30 05:55:18;;;;;;;2.33;1.50;;;17.90;56.00;;;;;;4989325;28;20613;-70
2021/12/30 05:57:44;;;;;;;2.95;1.63;;;17.90;56.00;;;;;;4989479;28;20148;-70
2021/12/30 06:00:15;;;;;;;3.72;1.80;;;17.90;56.00;;;;;;4989787;28;20062;-71
2021/12/30 06:02:42;;;;;;;4.47;2.30;;;17.90;56.00;;;;;;4989159;28;20026;-70
2021/12/30 06:05:08;;;;;;;2.90;1.80;;;17.90;56.00;;;;;;4988831;28;20041;-70
2021/12/30 06:07:33;;;;;;;3.63;1.60;;;17.90;56.20;;;;;;4988792;28;20038;-71
2021/12/30 06:09:59;;;;;;;3.97;1.88;;;17.90;56.00;;;;;;4989103;28;20030;-71
2021/12/30 06:12:26;;;;;;;2.58;1.30;;;17.90;56.10;;;;;;4989100;28;20480;-70
2021/12/30 06:14:52;;;;;;;2.70;1.35;;;17.90;56.10;;;;;;4989528;28;20037;-72
2021/12/30 06:17:18;;;;;;;3.25;1.83;;;17.90;56.10;;;;;;4988676;28;20117;-70
2021/12/30 06:19:44;;;;;;;3.35;1.67;;;17.80;56.20;;;;;;4987777;28;20109;-70
2021/12/30 06:22:11;;;;;;;3.92;1.70;;;17.80;56.20;;;;;;4988596;28;20157;-70
2021/12/30 06:24:36;;;;;;;4.15;1.75;;;17.80;56.30;;;;;;4988202;28;20062;-70
2021/12/30 06:27:02;;;;;;;3.65;1.77;;;17.80;56.30;;;;;;4987989;28;20053;-70
2021/12/30 06:29:28;;;;;;;3.38;1.67;;;17.70;56.80;;;;;;4988538;28;20488;-69
2021/12/30 06:31:54;;;;;;;3.00;1.60;;;17.70;56.50;;;;;;4988563;28;20026;-70
2021/12/30 06:34:19;;;;;;;2.90;1.75;;;17.70;56.50;;;;;;4988730;28;20041;-70
2021/12/30 06:36:45;;;;;;;2.50;1.33;;;17.70;56.60;;;;;;4988906;28;20100;-69
2021/12/30 06:39:10;;;;;;;3.05;1.63;;;17.70;56.70;;;;;;4988660;28;20122;-70
2021/12/30 06:41:36;;;;;;;4.13;1.80;;;17.60;56.70;;;;;;4988941;28;20026;-72
2021/12/30 06:44:02;;;;;;;3.50;1.77;;;17.60;56.80;;;;;;4988608;28;20065;-69
2021/12/30 06:46:28;;;;;;;2.72;1.30;;;17.60;56.90;;;;;;4988616;28;20145;-70
2021/12/30 06:48:54;;;;;;;2.85;1.30;;;17.50;56.90;;;;;;4987650;28;20071;-70
2021/12/30 06:51:23;;;;;;;2.90;1.60;;;17.50;57.00;;;;;;4988261;28;20054;-70
2021/12/30 06:53:49;;;;;;;3.33;1.65;;;17.50;57.10;;;;;;4988432;28;20095;-69
2021/12/30 06:56:15;;;;;;;3.97;1.60;;;17.50;57.10;;;;;;4989080;28;20034;-70
2021/12/30 06:58:41;;;;;;;2.22;1.33;;;17.40;57.10;;;;;;4987723;28;20039;-70
2021/12/30 07:01:07;;;;;;;2.95;1.20;;;17.50;57.20;;;;;;4988682;28;20041;-70
2021/12/30 07:03:33;;;;;;;2.83;1.50;;;17.40;57.20;;;;;;4988304;28;20400;-70
2021/12/30 07:05:59;;;;;;;3.13;1.45;;;17.40;57.30;;;;;;4988023;28;20481;-71
2021/12/30 07:08:24;;;;;;;2.83;1.48;;;17.40;57.40;;;;;;4988344;28;20023;-69
2021/12/30 07:10:50;;;;;;;3.33;1.50;;;17.30;57.40;;;;;;4987873;28;20033;-70
2021/12/30 07:13:16;;;;;;;3.45;1.70;;;17.30;57.50;;;;;;4988317;28;20057;-69
2021/12/30 07:15:42;;;;;;;3.15;1.75;;;17.30;57.50;;;;;;4988357;28;20428;-70
2021/12/30 07:18:08;;;;;;;3.38;1.60;;;17.30;57.70;;;;;;4988157;28;20034;-71
2021/12/30 07:20:34;;;;;;;2.38;1.50;;;17.30;57.80;;;;;;4988681;28;20042;-71
2021/12/30 07:23:00;;;;;;;3.90;1.50;;;17.20;57.80;;;;;;4988003;28;20035;-72
2021/12/30 07:25:26;;;;;;;2.30;1.15;;;17.20;58.00;;;;;;4988484;28;20045;-70
2021/12/30 07:27:54;;;;;;;2.13;1.27;;;17.20;58.00;;;;;;4988161;28;20030;-70
2021/12/30 07:30:23;;;;;;;2.72;1.70;;;17.20;58.10;;;;;;4988162;28;20517;-70
2021/12/30 07:32:49;;;;;;;3.08;1.33;;;17.20;58.20;;;;;;4987748;28;20034;-71
2021/12/30 07:35:16;;;;;;;3.08;1.60;;;17.10;58.20;;;;;;4987991;28;20027;-70
2021/12/30 07:37:42;;;;;;;3.42;1.45;;;17.10;58.30;;;;;;4987578;28;20050;-70
2021/12/30 07:40:08;;;;;;;2.95;1.50;;;17.10;58.30;;;;;;4987781;28;20469;-69
2021/12/30 07:42:34;;;;;;;3.25;1.48;;;17.10;58.30;;;;;;4987846;28;20029;-71
2021/12/30 07:45:00;;;;;;;2.83;1.52;;;17.10;58.30;;;;;;4987781;28;20050;-70
2021/12/30 07:47:26;;;;;;;3.22;1.70;;;17.00;58.40;;;;;;4987239;28;20045;-70
2021/12/30 07:49:52;;;;;;;2.80;1.25;;;17.00;58.60;;;;;;4987677;28;20096;-70
2021/12/30 07:52:17;;;;;;;2.42;1.50;;;17.00;58.60;;;;;;4987429;28;20382;-70
2021/12/30 07:54:44;;;;;;;2.65;1.48;;;17.00;58.50;;;;;;4987452;28;20031;-70
2021/12/30 07:57:11;;;;;;;2.90;1.70;;;17.00;58.50;;;;;;4987198;28;20030;-70
2021/12/30 07:59:37;;;;;;;3.35;1.60;;;17.00;58.50;;;;;;4987329;28;20125;-71
2021/12/30 08:02:03;;;;;;;2.92;1.23;;;16.90;58.50;;;;;;4987872;28;20105;-70
2021/12/30 08:04:28;;;;;;;2.95;1.27;;;16.90;58.60;;;;;;4987651;28;20113;-70
2021/12/30 08:06:54;;;;;;;3.75;1.50;;;16.90;58.70;;;;;;4987917;28;20109;-69
2021/12/30 08:09:20;;;;;;;2.33;1.40;;;16.90;58.70;;;;;;4987694;28;20027;-70
2021/12/30 08:11:46;;;;;;;3.00;1.55;;;16.90;58.70;;;;;;4987637;28;20093;-70
2021/12/30 08:14:12;;;;;;;2.35;1.38;;;16.90;58.80;;;;;;4987704;28;20049;-70
2021/12/30 08:16:46;;;;;;;3.10;1.60;;;16.90;58.80;;;;;;4990098;28;20034;-70
2021/12/30 08:19:12;;;;;;;3.00;1.40;;;16.90;59.00;;;;;;4991708;28;20037;-70
2021/12/30 08:21:41;;;;;;;3.33;1.38;;;16.80;58.80;;;;;;4991838;28;20042;-70
2021/12/30 08:24:08;;;;;;;3.28;1.30;;;16.90;58.80;;;;;;4991150;28;20646;-70
2021/12/30 08:26:34;;;;;;;3.80;1.52;;;16.80;58.60;;;;;;4990920;28;20396;-70
2021/12/30 08:28:59;;;;;;;3.33;1.58;;;16.80;58.70;;;;;;4990422;28;20500;-69
2021/12/30 08:31:25;;;;;;;2.75;1.40;;;16.80;58.80;;;;;;4990535;28;20034;-70
2021/12/30 08:33:50;;;;;;;2.72;1.38;;;16.80;58.80;;;;;;4990681;28;20027;-70
2021/12/30 08:36:16;;;;;;;2.20;1.30;;;16.80;58.90;;;;;;4990308;28;20524;-71
2021/12/30 08:38:42;;;;;;;2.55;1.25;;;16.70;59.00;;;;;;4990280;28;20044;-69
2021/12/30 08:41:07;;;;;;;2.28;1.40;;;16.70;59.00;;;;;;4990461;28;20061;-71
2021/12/30 08:43:33;;;;;;;2.80;1.48;;;16.80;59.10;;;;;;4990472;28;20054;-70
2021/12/30 08:45:58;;;;;;;2.15;1.48;;;16.80;59.20;;;;;;4990310;28;20105;-70
2021/12/30 08:48:24;;;;;;;2.42;1.25;;;16.80;59.30;;;;;;4990238;28;20022;-69
2021/12/30 08:50:50;;;;;;;2.78;1.30;;;16.80;59.40;;;;;;4990819;28;20508;-69
2021/12/30 08:53:16;;;;;;;2.47;1.23;;;16.80;59.50;;;;;;4991125;28;20030;-70
2021/12/30 08:55:42;;;;;;;3.08;1.48;;;16.80;59.30;;;;;;4991002;28;20460;-69
2021/12/30 08:58:07;;;;;;;3.97;1.63;;;16.80;59.40;;;;;;4989519;28;20655;-70
2021/12/30 09:00:41;;;;;;;2.78;1.20;;;16.80;59.60;;;;;;4990292;28;20448;-69
2021/12/30 09:03:07;;;;;;;4.65;2.08;;;16.90;59.70;;;;;;4990684;28;20053;-70
2021/12/30 09:05:34;;;;;;;4.13;1.50;;;16.90;59.90;;;;;;4990510;28;20027;-70
2021/12/30 09:08:00;;;;;;;3.17;1.38;;;16.90;59.90;;;;;;4990318;28;20109;-69
2021/12/30 09:10:26;;;;;;;2.78;1.20;;;16.90;59.90;;;;;;4990480;28;20410;-70
2021/12/30 09:12:53;;;;;;;3.42;1.48;;;16.90;59.90;;;;;;4990155;28;20686;-70
2021/12/30 09:15:23;;;;;;;2.92;1.50;;;17.00;60.00;;;;;;4990314;28;20034;-69
2021/12/30 09:17:49;;;;;;;3.17;1.30;;;17.00;60.10;;;;;;4989847;28;20034;-69
2021/12/30 09:20:15;;;;;;;4.80;1.65;;;17.00;60.20;;;;;;4989805;28;20099;-70
2021/12/30 09:22:41;;;;;;;2.72;1.40;;;17.00;60.30;;;;;;4989851;28;20489;-70
2021/12/30 09:25:09;;;;;;;3.20;1.38;;;17.10;60.40;;;;;;4989826;28;20113;-69
2021/12/30 09:27:36;;;;;;;2.45;1.33;;;17.10;60.40;;;;;;4989015;28;20208;-70
2021/12/30 09:30:05;;;;;;;4.10;1.38;;;17.10;60.40;;;;;;4989207;28;20030;-70
2021/12/30 09:32:30;;;;;;;3.42;1.63;;;17.10;60.40;;;;;;4989367;28;20026;-73
2021/12/30 09:34:56;;;;;;;4.25;1.52;;;17.10;60.30;;;;;;4988993;28;20084;-69
2021/12/30 09:37:23;;;;;;;4.13;1.50;;;17.10;60.40;;;;;;4989690;28;20023;-70
2021/12/30 09:39:48;;;;;;;3.35;1.60;;;17.10;60.50;;;;;;4989504;28;20362;-69
2021/12/30 09:42:16;;;;;;;4.45;1.65;;;17.10;60.60;;;;;;4989112;28;20545;-70
2021/12/30 09:44:42;;;;;;;3.78;1.50;;;17.00;60.60;;;;;;4989073;28;20042;-70
2021/12/30 09:47:08;;;;;;;3.33;1.48;;;17.00;60.60;;;;;;4989119;28;20157;-70
2021/12/30 09:49:33;;;;;;;3.63;1.55;;;17.00;60.60;;;;;;4989454;28;20046;-73
2021/12/30 09:52:01;;;;;;;3.60;1.50;;;17.00;60.70;;;;;;4988813;28;20030;-70
2021/12/30 09:54:26;;;;;;;5.13;1.50;;;17.00;60.70;;;;;;4989093;28;20031;-70
2021/12/30 09:56:53;;;;;;;4.72;1.60;;;17.00;60.80;;;;;;4988929;28;20076;-72
2021/12/30 09:59:20;;;;;;;3.65;1.50;;;17.00;60.70;;;;;;4988888;28;20080;-70
2021/12/30 10:01:46;;;;;;;4.93;1.88;;;17.00;60.80;;;;;;4989158;28;20048;-70
2021/12/30 10:04:12;;;;;;;4.22;1.48;;;17.00;60.80;;;;;;4988909;28;20037;-70
2021/12/30 10:06:45;;;;;;;3.22;1.30;;;16.90;60.70;;;;;;4989687;28;20034;-70
2021/12/30 10:09:13;;;;;;;3.03;1.50;;;16.90;60.60;;;;;;4989265;28;20038;-69
2021/12/30 10:11:50;;;;;;;5.65;1.70;;;16.90;60.60;;;;;;4989049;28;20033;-72
2021/12/30 10:14:32;;;;;;;4.47;1.75;;;16.90;60.50;;;;;;4988519;28;20023;-69
2021/12/30 10:17:33;;;;;;;4.50;1.67;;;16.90;60.50;;;;;;4988698;28;20511;-71
2021/12/30 10:20:17;;;;;;;6.13;2.10;;;16.90;60.30;;;;;;4927937;29;20035;-69
2021/12/30 10:22:46;;;;;;;6.80;1.92;;;16.90;60.50;;;;;;4983407;28;20042;-69
2021/12/30 10:25:28;;;;;;;6.10;1.83;;;16.80;60.50;;;;;;4988299;28;20057;-69
2021/12/30 10:27:53;;;;;;;5.32;2.05;;;16.90;60.60;;;;;;4988223;28;20078;-69
2021/12/30 10:30:31;;;;;;;5.35;1.80;;;16.80;60.50;;;;;;4988149;28;20068;-69
2021/12/30 10:33:13;;;;;;;5.05;1.83;;;16.90;60.60;;;;;;4988730;28;20057;-70
2021/12/30 10:35:39;;;;;;;5.35;1.80;;;16.80;60.50;;;;;;4988458;28;20022;-69
2021/12/30 10:38:10;;;;;;;6.18;1.80;;;16.80;60.50;;;;;;4987442;28;20031;-69
2021/12/30 10:40:39;;;;;;;6.18;1.95;;;16.80;60.70;;;;;;4987936;28;20037;-72
2021/12/30 10:43:24;;;;;;;5.78;1.90;;;16.80;60.70;;;;;;4987672;28;20053;-69
2021/12/30 10:46:09;;;;;;;5.80;1.75;;;16.80;60.70;;;;;;4988105;28;20034;-69
2021/12/30 10:48:46;;;;;;;5.50;1.75;;;16.80;60.70;;;;;;4987615;28;20041;-69
2021/12/30 10:51:23;;;;;;;6.18;1.80;;;16.80;60.70;;;;;;4988093;28;20034;-70
2021/12/30 10:53:51;;;;;;;6.07;2.08;;;16.70;60.50;;;;;;4988157;28;20038;-68
2021/12/30 10:56:29;;;;;;;6.00;1.80;;;16.70;60.60;;;;;;4988070;28;20036;-69
2021/12/30 10:59:08;;;;;;;5.38;1.80;;;16.70;60.60;;;;;;4987888;28;20386;-69
2021/12/30 11:01:41;;;;;;;5.55;2.25;;;16.70;60.70;;;;;;4988213;28;20250;-70
2021/12/30 11:04:07;;;;;;;5.10;1.83;;;16.80;60.90;;;;;;4987552;28;20025;-70
2021/12/30 11:06:34;;;;;;;4.28;1.88;;;16.80;61.00;;;;;;4987543;28;20444;-70
2021/12/30 11:09:09;;;;;;;6.32;2.03;;;16.70;60.90;;;;;;4986671;28;20760;-70
2021/12/30 11:11:39;;;;;;;8.52;2.30;;;16.70;60.90;;;;;;4987476;28;20089;-70
2021/12/30 11:14:11;;;;;;;7.22;1.83;;;16.70;60.90;;;;;;4987295;28;20034;-69
2021/12/30 11:16:59;;;;;;;4.38;1.58;;;16.80;61.00;;;;;;4987369;28;20081;-70
2021/12/30 11:19:29;;;;;;;6.13;2.05;;;16.80;61.00;;;;;;4987319;28;20531;-71
2021/12/30 11:21:59;;;;;;;5.10;2.03;;;16.70;60.90;;;;;;4987630;28;20022;-69
2021/12/30 11:24:27;;;;;;;5.18;1.90;;;16.80;61.00;;;;;;4986954;28;20052;-70
2021/12/30 11:26:55;;;;;;;6.47;2.08;;;16.80;61.00;;;;;;4987392;28;20074;-69
2021/12/30 11:29:21;;;;;;;6.32;1.95;;;16.80;61.00;;;;;;4987550;28;20030;-69
2021/12/30 11:31:47;;;;;;;6.22;2.03;;;16.80;61.10;;;;;;4987620;28;20556;-69
2021/12/30 11:34:13;;;;;;;5.68;2.00;;;16.80;61.00;;;;;;4987158;28;20034;-69
2021/12/30 11:36:39;;;;;;;6.32;2.22;;;16.80;61.10;;;;;;4987055;28;20119;-69
2021/12/30 11:39:13;;;;;;;6.05;1.75;;;16.80;61.00;;;;;;4986963;28;20038;-69
2021/12/30 11:41:42;;;;;;;5.03;2.10;;;16.80;61.00;;;;;;4987284;28;20034;-69
2021/12/30 11:44:09;;;;;;;6.30;2.20;;;16.80;61.00;;;;;;4987866;28;20413;-70
2021/12/30 11:46:40;;;;;;;7.03;2.35;;;16.80;61.00;;;;;;4989101;28;20043;-70
2021/12/30 11:49:08;;;;;;;4.78;1.65;;;16.80;61.00;;;;;;4987163;28;20037;-69
2021/12/30 11:51:42;;;;;;;7.43;2.00;;;16.80;61.00;;;;;;4991604;28;20042;-70
2021/12/30 11:54:40;;;;;;;8.50;2.38;;;16.80;61.00;;;;;;4991462;28;20022;-69
2021/12/30 11:57:34;;;;;;;7.18;2.00;;;16.90;61.00;;;;;;4990717;28;20037;-70
2021/12/30 12:00:21;;;;;;;7.53;2.33;;;16.80;61.00;;;;;;4990670;28;20037;-70
2021/12/30 12:02:46;;;;;;;6.78;2.50;;;16.80;61.10;;;;;;4990694;28;20161;-72
2021/12/30 12:05:43;;;;;;;6.65;2.28;;;16.80;61.20;;;;;;4991128;28;20034;-69
2021/12/30 12:08:14;;;;;;;6.10;1.85;;;16.90;61.30;;;;;;4990829;28;20041;-70
2021/12/30 12:10:40;;;;;;;8.20;2.42;;;16.90;61.30;;;;;;4991124;28;20508;-70
2021/12/30 12:13:35;;;;;;;7.25;2.20;;;16.90;61.30;;;;;;4991825;28;20026;-71
2021/12/30 12:16:02;;;;;;;7.72;2.38;;;16.90;61.30;;;;;;4991170;28;20389;-71
2021/12/30 12:18:29;;;;;;;6.38;2.38;;;16.90;61.30;;;;;;4990773;28;20038;-70
2021/12/30 12:20:57;;;;;;;7.32;2.30;;;16.90;61.30;;;;;;4990207;28;20038;-69
2021/12/30 12:23:37;;;;;;;6.75;2.28;;;16.90;61.30;;;;;;4990362;28;20084;-69
2021/12/30 12:26:14;;;;;;;6.13;1.92;;;16.90;61.30;;;;;;4990908;28;20034;-69
2021/12/30 12:28:42;;;;;;;5.15;1.92;;;16.90;61.30;;;;;;4990705;28;20487;-70
2021/12/30 12:31:09;;;;;;;6.22;2.00;;;16.90;61.40;;;;;;4990435;28;20030;-69
2021/12/30 12:33:38;;;;;;;5.82;2.22;;;16.90;61.30;;;;;;4990491;28;20026;-69
2021/12/30 12:36:33;;;;;;;6.80;2.20;;;16.90;61.20;;;;;;4990577;28;20091;-69
2021/12/30 12:38:59;;;;;;;8.05;2.20;;;16.90;61.20;;;;;;4990460;28;20062;-69
2021/12/30 12:41:29;;;;;;;5.07;1.80;;;16.90;61.10;;;;;;4990293;28;20037;-69
2021/12/30 12:43:57;;;;;;;6.43;1.92;;;16.90;62.10;;;;;;4989516;28;20100;-69
2021/12/30 12:46:50;;;;;;;5.60;2.10;;;16.90;61.10;;;;;;4990342;28;20038;-69
2021/12/30 12:49:35;;;;;;;7.70;2.30;;;16.90;61.10;;;;;;4987594;28;20057;-70
2021/12/30 12:52:04;;;;;;;5.43;2.20;;;16.90;61.10;;;;;;4978826;28;20825;-70
2021/12/30 12:54:36;;;;;;;4.28;1.98;;;16.90;61.10;;;;;;4990111;28;20030;-70
2021/12/30 12:57:14;;;;;;;5.40;1.90;;;16.90;61.10;;;;;;4989338;28;20042;-69
2021/12/30 12:59:40;;;;;;;5.65;2.10;;;16.90;62.00;;;;;;4990192;28;20062;-71
2021/12/30 13:02:08;;;;;;;6.55;2.20;;;16.90;61.10;;;;;;4989486;28;20026;-70
2021/12/30 13:04:34;;;;;;;5.63;2.20;;;16.90;61.10;;;;;;4989818;28;20036;-69
2021/12/30 13:07:11;;;;;;;5.28;2.00;;;16.90;62.10;;;;;;4989971;28;20109;-69
2021/12/30 13:09:41;;;;;;;4.97;1.88;;;16.90;60.90;;;;;;4989242;28;20026;-69
2021/12/30 13:12:07;;;;;;;8.23;2.33;;;16.90;61.00;;;;;;4989530;28;20058;-69
2021/12/30 13:14:33;;;;;;;5.13;1.90;;;16.90;60.90;;;;;;4989216;28;20409;-69
2021/12/30 13:17:10;;;;;;;5.82;2.08;;;16.90;60.90;;;;;;4989910;28;20030;-70
2021/12/30 13:19:39;;;;;;;5.93;1.90;;;16.90;60.90;;;;;;4989716;28;20046;-69
2021/12/30 13:22:08;;;;;;;6.78;2.38;;;16.90;60.90;;;;;;4989673;28;20571;-69
2021/12/30 13:24:54;;;;;;;5.65;2.00;;;16.90;60.90;;;;;;4990098;28;20174;-69
2021/12/30 13:27:29;;;;;;;8.45;2.67;;;16.90;61.90;;;;;;4989716;28;20037;-69
2021/12/30 13:30:00;;;;;;;6.47;1.90;;;16.90;60.90;;;;;;4993442;28;20030;-69
2021/12/30 13:32:35;;;;;;;4.63;2.20;;;16.90;60.80;;;;;;4989447;28;20026;-69
2021/12/30 13:35:05;;;;;;;5.60;1.95;;;16.90;60.90;;;;;;4990270;28;20084;-69
2021/12/30 13:37:40;;;;;;;6.15;1.90;;;17.00;60.90;;;;;;4989217;28;20084;-69
2021/12/30 13:40:16;;;;;;;4.68;1.60;;;16.90;60.80;;;;;;4988751;28;20034;-69
2021/12/30 13:42:50;;;;;;;5.80;1.98;;;16.90;60.80;;;;;;4989088;28;20022;-70
2021/12/30 13:45:21;;;;;;;6.82;2.08;;;16.90;60.80;;;;;;4989120;28;20489;-70
2021/12/30 13:47:47;;;;;;;4.22;1.70;;;16.90;60.80;;;;;;4988730;28;20552;-70
2021/12/30 13:50:15;;;;;;;5.07;1.70;;;17.00;60.80;;;;;;4989210;28;20034;-69
2021/12/30 13:52:44;;;;;;;5.03;1.92;;;16.90;60.70;;;;;;4989168;28;20041;-68
2021/12/30 13:55:15;;;;;;;6.35;2.35;;;16.90;60.80;;;;;;4989001;28;20033;-72
2021/12/30 13:57:42;;;;;;;5.53;1.95;;;17.00;60.80;;;;;;4988761;28;20038;-70
2021/12/30 14:00:12;;;;;;;4.60;1.88;;;17.00;60.80;;;;;;4988822;28;20120;-72
2021/12/30 14:02:38;;;;;;;6.88;1.63;;;17.00;60.80;;;;;;4988865;28;20402;-69
2021/12/30 14:05:09;;;;;;;4.25;1.80;;;16.90;60.80;;;;;;4988903;28;20037;-70
2021/12/30 14:07:37;;;;;;;5.13;1.73;;;17.00;60.80;;;;;;4988745;28;20121;-70
2021/12/30 14:10:04;;;;;;;5.90;2.25;;;17.00;60.80;;;;;;4989123;28;20026;-70
2021/12/30 14:12:31;;;;;;;3.80;1.75;;;17.00;60.90;;;;;;4988643;28;20030;-71
2021/12/30 14:15:15;;;;;;;6.00;1.95;;;17.00;61.80;;;;;;4988853;28;20068;-71
2021/12/30 14:17:45;;;;;;;3.67;1.75;;;17.00;60.70;;;;;;4988460;28;20053;-71
2021/12/30 14:20:12;;;;;;;5.47;1.98;;;17.00;60.80;;;;;;4988480;28;20085;-71
2021/12/30 14:22:43;;;;;;;5.90;2.20;;;17.00;60.80;;;;;;4988853;28;20047;-71
2021/12/30 14:25:29;;;;;;;4.18;1.80;;;17.00;60.80;;;;;;4988692;28;20088;-71
2021/12/30 14:27:55;;;;;;;5.18;2.08;;;17.00;60.80;;;;;;4988444;28;20019;-70
2021/12/30 14:30:21;;;;;;;4.35;1.85;;;17.00;60.80;;;;;;4988650;28;20023;-70
2021/12/30 14:32:47;;;;;;;6.75;2.08;;;17.00;60.80;;;;;;4988243;28;20084;-70
2021/12/30 14:35:13;;;;;;;5.85;2.08;;;17.00;60.80;;;;;;4988720;28;20023;-71
2021/12/30 14:37:40;;;;;;;4.55;1.73;;;16.90;60.80;;;;;;4970942;28;20038;-71